Time,TemperatureF,DewpointF,PressureIn,WindDirection,WindDirectionDegrees,WindSpeedMPH,WindSpeedGustMPH,Humidity,HourlyPrecipIn,Conditions,Clouds,dailyrainin,SolarRadiationWatts/m^2,SoftwareType,DateUTC
2013-03-26 00:03:00,36.0,25.0,-100.00,NE,44,8.0,16.0,65,0.00,,,0.00,0.000000,,2013-03-26 04:03:00,
2013-03-26 00:13:00,36.0,25.0,-100.00,NE,44,8.0,16.0,65,0.00,,,0.00,0.000000,,2013-03-26 04:13:00,
2013-03-26 00:23:00,36.0,25.0,-100.00,NE,44,8.0,16.0,65,0.00,,,0.00,0.000000,,2013-03-26 04:23:00,
2013-03-26 00:33:00,36.0,25.0,-100.00,NE,44,8.0,16.0,65,0.00,,,0.00,0.000000,,2013-03-26 04:33:00,
2013-03-26 01:02:00,36.0,24.0,-100.00,NE,39,8.0,19.0,61,0.00,,,0.00,0.000000,,2013-03-26 05:02:00,
2013-03-26 01:12:00,36.0,24.0,-100.00,NE,39,8.0,19.0,61,0.00,,,0.00,0.000000,,2013-03-26 05:12:00,
2013-03-26 01:22:00,36.0,24.0,-100.00,NE,39,8.0,19.0,61,0.00,,,0.00,0.000000,,2013-03-26 05:22:00,
2013-03-26 01:32:00,36.0,24.0,-100.00,NE,39,8.0,19.0,61,0.00,,,0.00,0.000000,,2013-03-26 05:32:00,
2013-03-26 02:02:00,36.0,24.0,-100.00,NE,36,8.0,16.0,61,0.00,,,0.00,0.000000,,2013-03-26 06:02:00,
2013-03-26 02:12:00,36.0,24.0,-100.00,NE,36,8.0,16.0,61,0.00,,,0.00,0.000000,,2013-03-26 06:12:00,
2013-03-26 02:22:00,36.0,24.0,-100.00,NE,36,8.0,16.0,61,0.00,,,0.00,0.000000,,2013-03-26 06:22:00,
2013-03-26 02:32:00,36.0,24.0,-100.00,NE,36,8.0,16.0,61,0.00,,,0.00,0.000000,,2013-03-26 06:32:00,
2013-03-26 03:02:00,34.0,22.0,-100.00,NE,34,9.0,22.0,62,0.00,,,0.00,0.000000,,2013-03-26 07:02:00,
2013-03-26 03:12:00,34.0,22.0,-100.00,NE,34,9.0,22.0,62,0.00,,,0.00,0.000000,,2013-03-26 07:12:00,
2013-03-26 03:22:00,34.0,22.0,-100.00,NE,34,9.0,22.0,62,0.00,,,0.00,0.000000,,2013-03-26 07:22:00,
2013-03-26 03:33:00,34.0,22.0,-100.00,NE,34,9.0,22.0,62,0.00,,,0.00,0.000000,,2013-03-26 07:33:00,
2013-03-26 04:02:00,33.0,23.0,-100.00,NNE,33,8.0,17.0,67,0.00,,,0.00,0.000000,,2013-03-26 08:02:00,
2013-03-26 04:13:00,33.0,23.0,-100.00,NNE,33,8.0,17.0,67,0.00,,,0.00,0.000000,,2013-03-26 08:13:00,
2013-03-26 04:22:00,33.0,23.0,-100.00,NNE,33,8.0,17.0,67,0.00,,,0.00,0.000000,,2013-03-26 08:22:00,
2013-03-26 04:32:00,33.0,23.0,-100.00,NNE,33,8.0,17.0,67,0.00,,,0.00,0.000000,,2013-03-26 08:32:00,
2013-03-26 05:02:00,32.0,22.0,-100.00,NE,36,10.0,19.0,66,0.00,,,0.00,0.000000,,2013-03-26 09:02:00,
2013-03-26 05:12:00,32.0,22.0,-100.00,NE,36,10.0,19.0,66,0.00,,,0.00,0.000000,,2013-03-26 09:12:00,
2013-03-26 05:22:00,32.0,22.0,-100.00,NE,36,10.0,19.0,66,0.00,,,0.00,0.000000,,2013-03-26 09:22:00,
2013-03-26 05:33:00,32.0,22.0,-100.00,NE,36,10.0,19.0,66,0.00,,,0.00,0.000000,,2013-03-26 09:33:00,
2013-03-26 06:03:00,32.0,23.0,-100.00,NNE,24,9.0,21.0,70,0.00,,,0.00,0.000000,,2013-03-26 10:03:00,
2013-03-26 06:12:00,32.0,23.0,-100.00,NNE,24,9.0,21.0,70,0.00,,,0.00,0.000000,,2013-03-26 10:12:00,
2013-03-26 06:22:00,32.0,23.0,-100.00,NNE,24,9.0,21.0,70,0.00,,,0.00,0.000000,,2013-03-26 10:22:00,
2013-03-26 06:32:00,32.0,23.0,-100.00,NNE,24,9.0,21.0,70,0.00,,,0.00,0.000000,,2013-03-26 10:32:00,
2013-03-26 07:03:00,31.0,23.0,-100.00,NNE,32,8.0,17.0,71,0.00,,,0.00,2.000000,,2013-03-26 11:03:00,
2013-03-26 07:12:00,31.0,23.0,-100.00,NNE,32,8.0,17.0,71,0.00,,,0.00,2.000000,,2013-03-26 11:12:00,
2013-03-26 07:22:00,31.0,23.0,-100.00,NNE,32,8.0,17.0,71,0.00,,,0.00,2.000000,,2013-03-26 11:22:00,
2013-03-26 07:32:00,31.0,23.0,-100.00,NNE,32,8.0,17.0,71,0.00,,,0.00,2.000000,,2013-03-26 11:32:00,
2013-03-26 08:03:00,33.0,23.0,-100.00,NNE,28,8.0,15.0,67,0.00,,,0.00,25.000000,,2013-03-26 12:03:00,
2013-03-26 08:12:00,33.0,23.0,-100.00,NNE,28,8.0,15.0,67,0.00,,,0.00,25.000000,,2013-03-26 12:12:00,
2013-03-26 08:22:00,33.0,23.0,-100.00,NNE,28,8.0,15.0,67,0.00,,,0.00,25.000000,,2013-03-26 12:22:00,
2013-03-26 08:32:00,33.0,23.0,-100.00,NNE,28,8.0,15.0,67,0.00,,,0.00,25.000000,,2013-03-26 12:32:00,
2013-03-26 09:03:00,36.0,23.0,-100.00,NNE,25,10.0,19.0,59,0.00,,,0.00,218.000000,,2013-03-26 13:03:00,
2013-03-26 09:12:00,36.0,23.0,-100.00,NNE,25,10.0,19.0,59,0.00,,,0.00,218.000000,,2013-03-26 13:12:00,
2013-03-26 09:23:00,36.0,23.0,-100.00,NNE,25,10.0,19.0,59,0.00,,,0.00,218.000000,,2013-03-26 13:23:00,
2013-03-26 09:32:00,36.0,23.0,-100.00,NNE,25,10.0,19.0,59,0.00,,,0.00,218.000000,,2013-03-26 13:32:00,
2013-03-26 10:02:00,39.0,25.0,-100.00,NNE,27,8.0,17.0,56,0.00,,,0.00,447.000000,,2013-03-26 14:02:00,
2013-03-26 10:12:00,39.0,25.0,-100.00,NNE,27,8.0,17.0,56,0.00,,,0.00,447.000000,,2013-03-26 14:12:00,
2013-03-26 10:23:00,39.0,25.0,-100.00,NNE,27,8.0,17.0,56,0.00,,,0.00,447.000000,,2013-03-26 14:23:00,
2013-03-26 10:33:00,39.0,25.0,-100.00,NNE,27,8.0,17.0,56,0.00,,,0.00,447.000000,,2013-03-26 14:33:00,
2013-03-26 11:02:00,41.0,25.0,-100.00,NNE,28,9.0,17.0,52,0.00,,,0.00,695.000000,,2013-03-26 15:02:00,
2013-03-26 11:12:00,41.0,25.0,-100.00,NNE,28,9.0,17.0,52,0.00,,,0.00,695.000000,,2013-03-26 15:12:00,
2013-03-26 11:22:00,41.0,25.0,-100.00,NNE,28,9.0,17.0,52,0.00,,,0.00,695.000000,,2013-03-26 15:22:00,
2013-03-26 11:33:00,41.0,25.0,-100.00,NNE,28,9.0,17.0,52,0.00,,,0.00,695.000000,,2013-03-26 15:33:00,
2013-03-26 12:03:00,44.0,25.0,-100.00,NNE,25,7.0,17.0,47,0.00,,,0.00,772.000000,,2013-03-26 16:03:00,
2013-03-26 12:13:00,44.0,25.0,-100.00,NNE,25,7.0,17.0,47,0.00,,,0.00,772.000000,,2013-03-26 16:13:00,
2013-03-26 12:23:00,44.0,25.0,-100.00,NNE,25,7.0,17.0,47,0.00,,,0.00,772.000000,,2013-03-26 16:23:00,
2013-03-26 12:32:00,44.0,25.0,-100.00,NNE,25,7.0,17.0,47,0.00,,,0.00,772.000000,,2013-03-26 16:32:00,
2013-03-26 13:03:00,48.0,27.0,-100.00,NNE,15,5.0,15.0,44,0.00,,,0.00,853.000000,,2013-03-26 17:03:00,
2013-03-26 13:12:00,48.0,27.0,-100.00,NNE,15,5.0,15.0,44,0.00,,,0.00,853.000000,,2013-03-26 17:12:00,
2013-03-26 13:23:00,48.0,27.0,-100.00,NNE,15,5.0,15.0,44,0.00,,,0.00,853.000000,,2013-03-26 17:23:00,
2013-03-26 13:32:00,48.0,27.0,-100.00,NNE,15,5.0,15.0,44,0.00,,,0.00,853.000000,,2013-03-26 17:32:00,
2013-03-26 14:03:00,47.0,28.0,-100.00,NNW,331,6.0,15.0,47,0.00,,,0.00,734.000000,,2013-03-26 18:03:00,
2013-03-26 14:12:00,47.0,28.0,-100.00,NNW,331,6.0,15.0,47,0.00,,,0.00,734.000000,,2013-03-26 18:12:00,
2013-03-26 14:23:00,47.0,28.0,-100.00,NNW,331,6.0,15.0,47,0.00,,,0.00,734.000000,,2013-03-26 18:23:00,
2013-03-26 14:34:00,47.0,28.0,-100.00,NNW,331,6.0,15.0,47,0.00,,,0.00,734.000000,,2013-03-26 18:34:00,
2013-03-26 15:03:00,49.0,27.0,-100.00,NW,324,6.0,14.0,42,0.00,,,0.00,836.000000,,2013-03-26 19:03:00,
2013-03-26 15:12:00,49.0,27.0,-100.00,NW,324,6.0,14.0,42,0.00,,,0.00,836.000000,,2013-03-26 19:12:00,
2013-03-26 15:23:00,49.0,27.0,-100.00,NW,324,6.0,14.0,42,0.00,,,0.00,836.000000,,2013-03-26 19:23:00,
2013-03-26 15:32:00,49.0,27.0,-100.00,NW,324,6.0,14.0,42,0.00,,,0.00,836.000000,,2013-03-26 19:32:00,
2013-03-26 16:02:00,49.0,29.0,-100.00,NNW,337,5.0,18.0,45,0.00,,,0.00,825.000000,,2013-03-26 20:02:00,
2013-03-26 16:13:00,49.0,29.0,-100.00,NNW,337,5.0,18.0,45,0.00,,,0.00,825.000000,,2013-03-26 20:13:00,
2013-03-26 16:23:00,49.0,29.0,-100.00,NNW,337,5.0,18.0,45,0.00,,,0.00,825.000000,,2013-03-26 20:23:00,
2013-03-26 16:32:00,49.0,29.0,-100.00,NNW,337,5.0,18.0,45,0.00,,,0.00,825.000000,,2013-03-26 20:32:00,
2013-03-26 17:02:00,45.0,27.0,-100.00,NNW,340,7.0,17.0,49,0.00,,,0.00,370.000000,,2013-03-26 21:02:00,
2013-03-26 17:13:00,45.0,27.0,-100.00,NNW,340,7.0,17.0,49,0.00,,,0.00,370.000000,,2013-03-26 21:13:00,
2013-03-26 17:22:00,45.0,27.0,-100.00,NNW,340,7.0,17.0,49,0.00,,,0.00,370.000000,,2013-03-26 21:22:00,
2013-03-26 17:33:00,45.0,27.0,-100.00,NNW,340,7.0,17.0,49,0.00,,,0.00,370.000000,,2013-03-26 21:33:00,
2013-03-26 18:02:00,44.0,28.0,-100.00,North,351,4.0,12.0,53,0.00,,,0.00,224.000000,,2013-03-26 22:02:00,
2013-03-26 18:12:00,44.0,28.0,-100.00,North,351,4.0,12.0,53,0.00,,,0.00,224.000000,,2013-03-26 22:12:00,
2013-03-26 18:22:00,44.0,28.0,-100.00,North,351,4.0,12.0,53,0.00,,,0.00,224.000000,,2013-03-26 22:22:00,
2013-03-26 18:33:00,44.0,28.0,-100.00,North,351,4.0,12.0,53,0.00,,,0.00,224.000000,,2013-03-26 22:33:00,
2013-03-26 19:01:00,41.0,28.0,-100.00,NNW,337,4.0,11.0,60,0.00,,,0.00,47.000000,,2013-03-26 23:01:00,
2013-03-26 19:10:00,41.0,28.0,-100.00,NNW,337,4.0,11.0,60,0.00,,,0.00,47.000000,,2013-03-26 23:10:00,
2013-03-26 19:22:00,41.0,28.0,-100.00,NNW,337,4.0,11.0,60,0.00,,,0.00,47.000000,,2013-03-26 23:22:00,
2013-03-26 19:32:00,41.0,28.0,-100.00,NNW,337,4.0,11.0,60,0.00,,,0.00,47.000000,,2013-03-26 23:32:00,
2013-03-26 20:02:00,39.0,29.0,-100.00,NNW,334,3.0,8.0,67,0.00,,,0.00,3.000000,,2013-03-27 00:02:00,
2013-03-26 20:12:00,39.0,29.0,-100.00,NNW,334,3.0,8.0,67,0.00,,,0.00,3.000000,,2013-03-27 00:12:00,
2013-03-26 20:22:00,39.0,29.0,-100.00,NNW,334,3.0,8.0,67,0.00,,,0.00,3.000000,,2013-03-27 00:22:00,
2013-03-26 20:32:00,39.0,29.0,-100.00,NNW,334,3.0,8.0,67,0.00,,,0.00,3.000000,,2013-03-27 00:32:00,
2013-03-26 21:02:00,38.0,28.0,-100.00,NE,37,1.0,7.0,67,0.00,,,0.00,0.000000,,2013-03-27 01:02:00,
2013-03-26 21:12:00,38.0,28.0,-100.00,NE,37,1.0,7.0,67,0.00,,,0.00,0.000000,,2013-03-27 01:12:00,
2013-03-26 21:23:00,38.0,28.0,-100.00,NE,37,1.0,7.0,67,0.00,,,0.00,0.000000,,2013-03-27 01:23:00,
2013-03-26 21:33:00,38.0,28.0,-100.00,NE,37,1.0,7.0,67,0.00,,,0.00,0.000000,,2013-03-27 01:33:00,
2013-03-26 22:03:00,32.0,27.0,-100.00,SSW,199,1.0,4.0,82,0.00,,,0.00,0.000000,,2013-03-27 02:03:00,
2013-03-26 22:12:00,32.0,27.0,-100.00,SSW,199,1.0,4.0,82,0.00,,,0.00,0.000000,,2013-03-27 02:12:00,
2013-03-26 22:22:00,32.0,27.0,-100.00,SSW,199,1.0,4.0,82,0.00,,,0.00,0.000000,,2013-03-27 02:22:00,
2013-03-26 22:32:00,32.0,27.0,-100.00,SSW,199,1.0,4.0,82,0.00,,,0.00,0.000000,,2013-03-27 02:32:00,
2013-03-26 23:02:00,36.0,30.0,-100.00,NW,317,3.0,9.0,80,0.00,,,0.00,0.000000,,2013-03-27 03:02:00,
2013-03-26 23:12:00,36.0,30.0,-100.00,NW,317,3.0,9.0,80,0.00,,,0.00,0.000000,,2013-03-27 03:12:00,
2013-03-26 23:22:00,36.0,30.0,-100.00,NW,317,3.0,9.0,80,0.00,,,0.00,0.000000,,2013-03-27 03:22:00,
2013-03-26 23:33:00,36.0,30.0,-100.00,NW,317,3.0,9.0,80,0.00,,,0.00,0.000000,,2013-03-27 03:33:00,